Terminal Aerodrome Forecast
Issued by NWS

Home | Current Version | Previous Version | Text Only | Print | Product List | Glossary On
Versions: 1 2 3 4 5 6 7 8 9 10 11 12 13 14 15 16 17 18 19
000
FTUS42 KMLB 031754 AAA
TAFLEE
TAF AMD
KLEE 031754Z 0318/0418 28007KT P6SM VCTS SCT030CB SCT250
      TEMPO 0318/0319 32020G30KT 2SM +TSRA BKN030CB BKN080
     FM032000 30007KT P6SM SCT040 BKN120
     FM040200 30004KT P6SM SCT120=

USA.gov is the U.S. government's official web portal to all federal, state and local government web resources and services.